Погода Мангана неделю

Минас-Жерайс, Бразилия

19 - 25 июля
  • 19июля
    Сегодня
    +16°
    +32°
    Ясно и безоблачно
    ВремяПогодаТемператураВлажностьДавлениеВетер, м/сВероятность осадков
    00:00Небольшая облачность+19°C48 %726 мм2.1 м/с5 %
    03:00Практически безоблачно+17°C58 %725 мм1.8 м/с5 %
    06:00Ясно и безоблачно+16°C58 %727 мм1.8 м/с5 %
    09:00Ясно и безоблачно+22°C41 %729 мм2.2 м/с5 %
    12:00Ясно и безоблачно+28°C29 %728 мм3.0 м/с5 %
    15:00Ясно и безоблачно+31°C27 %726 мм2.5 м/с5 %
    18:00Ясно и безоблачно+27°C38 %726 мм2.1 м/с5 %
    21:00Практически безоблачно+23°C42 %726 мм2.7 м/с5 %
  • 20июля
    Суббота
    +16°
    +31°
    Ясно и безоблачно
    ВремяПогодаТемператураВлажностьДавлениеВетер, м/сВероятность осадков
    00:00Ясно и безоблачно+20°C52 %727 мм2.2 м/с5 %
    03:00Ясно и безоблачно+19°C65 %726 мм2.6 м/с5 %
    06:00Ясно и безоблачно+16°C77 %726 мм1.8 м/с5 %
    09:00Ясно и безоблачно+23°C55 %729 мм1.8 м/с5 %
    12:00Ясно и безоблачно+28°C34 %727 мм3.0 м/с5 %
    15:00Ясно и безоблачно+31°C31 %725 мм2.4 м/с5 %
    18:00Практически безоблачно+28°C40 %725 мм1.7 м/с5 %
    21:00Практически безоблачно+22°C48 %726 мм2.2 м/с5 %
  • 21июля
    Воскресенье
    +15°
    +31°
    Ясно и безоблачно
    ВремяПогодаТемператураВлажностьДавлениеВетер, м/сВероятность осадков
    00:00Ясно и безоблачно+21°C55 %726 мм2.5 м/с5 %
    03:00Ясно и безоблачно+18°C68 %725 мм2.1 м/с5 %
    06:00Ясно и безоблачно+16°C75 %726 мм1.6 м/с5 %
    09:00Ясно и безоблачно+22°C56 %728 мм0.8 м/с5 %
    12:00Ясно и безоблачно+28°C34 %727 мм1.9 м/с5 %
    15:00Ясно и безоблачно+31°C27 %725 мм2.0 м/с5 %
    18:00Ясно и безоблачно+27°C33 %725 мм2.6 м/с5 %
    21:00Практически безоблачно+22°C46 %726 мм1.9 м/с5 %
  • 22июля
    Понедельник
    +15°
    +31°
    Ясно и безоблачно
    ВремяПогодаТемператураВлажностьДавлениеВетер, м/сВероятность осадков
    00:00Ясно и безоблачно+20°C52 %726 мм2.2 м/с5 %
    03:00Ясно и безоблачно+18°C61 %726 мм2.6 м/с5 %
    06:00Ясно и безоблачно+16°C75 %727 мм1.9 м/с5 %
    09:00Ясно и безоблачно+22°C60 %729 мм2.2 м/с5 %
    12:00Ясно и безоблачно+28°C36 %728 мм2.1 м/с5 %
    15:00Ясно и безоблачно+30°C29 %726 мм1.7 м/с5 %
    18:00Ясно и безоблачно+27°C40 %726 мм2.3 м/с5 %
    21:00Ясно и безоблачно+22°C47 %726 мм2.5 м/с5 %
  • 23июля
    Вторник
    +15°
    +31°
    Ясно и безоблачно
    ВремяПогодаТемператураВлажностьДавлениеВетер, м/сВероятность осадков
    00:00Ясно и безоблачно+20°C55 %726 мм2.0 м/с5 %
    03:00Ясно и безоблачно+17°C68 %726 мм1.6 м/с5 %
    06:00Ясно и безоблачно+16°C73 %727 мм1.9 м/с5 %
    09:00Ясно и безоблачно+22°C53 %729 мм2.7 м/с5 %
    12:00Ясно и безоблачно+28°C35 %728 мм2.4 м/с5 %
    15:00Ясно и безоблачно+31°C31 %726 мм2.2 м/с5 %
    18:00Ясно и безоблачно+27°C43 %726 мм2.1 м/с5 %
    21:00Ясно и безоблачно+23°C45 %727 мм2.2 м/с5 %
Мы используем cookies
Соглашаюсь